Time;durP1;ratioP1;P1;durP2;ratioP2;P2;SDS_P1;SDS_P2;PMS_P1;PMS_P2;Temp;Humidity;BMP_temperature;BMP_pressure;BME280_temperature;BME280_humidity;BME280_pressure;Samples;Min_cycle;Max_cycle;Signal;HPM_P1;HPM_P2
2021/05/23 00:00:27;;;;;;;1.50;0.67;;;11.40;99.90;;;;;;5031187;28;20420;-78
2021/05/23 00:02:55;;;;;;;0.93;0.80;;;11.50;99.90;;;;;;5031257;28;20662;-77
2021/05/23 00:05:23;;;;;;;1.67;0.77;;;11.60;99.90;;;;;;5013326;28;20887;-76
2021/05/23 00:08:16;;;;;;;1.47;0.57;;;11.60;99.90;;;;;;5030998;28;20436;-77
2021/05/23 00:10:46;;;;;;;9.13;0.60;;;11.60;99.90;;;;;;5031172;28;20413;-77
2021/05/23 00:13:15;;;;;;;0.80;0.60;;;11.60;99.90;;;;;;5030906;28;20408;-77
2021/05/23 00:15:43;;;;;;;0.60;0.60;;;11.70;99.90;;;;;;5012450;28;20516;-74
2021/05/23 00:18:10;;;;;;;1.30;0.60;;;11.70;99.90;;;;;;5031050;28;20428;-77
2021/05/23 00:20:36;;;;;;;0.80;0.63;;;11.80;99.90;;;;;;5031142;28;20855;-77
2021/05/23 00:23:04;;;;;;;1.10;0.60;;;11.80;99.90;;;;;;5030894;28;20421;-77
2021/05/23 00:25:30;;;;;;;1.33;0.80;;;11.90;99.90;;;;;;5033965;28;20474;-77
2021/05/23 00:27:55;;;;;;;0.90;0.60;;;11.90;99.90;;;;;;5034484;28;20871;-77
2021/05/23 00:30:22;;;;;;;0.60;0.60;;;11.90;99.90;;;;;;5034227;28;20413;-77
2021/05/23 00:32:49;;;;;;;2.83;0.50;;;11.90;99.90;;;;;;5033142;28;20178;-77
2021/05/23 00:35:17;;;;;;;0.70;0.50;;;11.90;99.90;;;;;;5034289;28;20421;-78
2021/05/23 00:37:43;;;;;;;1.17;0.60;;;11.90;99.90;;;;;;5034282;28;20451;-77
2021/05/23 00:40:09;;;;;;;1.57;0.60;;;11.90;99.90;;;;;;5034376;28;20417;-78
2021/05/23 00:42:35;;;;;;;1.17;0.70;;;12.00;99.90;;;;;;5034069;28;20506;-76
2021/05/23 00:45:03;;;;;;;1.77;0.60;;;12.00;99.90;;;;;;5016424;28;20471;-77
2021/05/23 00:47:28;;;;;;;2.50;0.67;;;12.00;99.90;;;;;;5016619;28;21156;-77
2021/05/23 00:49:54;;;;;;;0.70;0.70;;;12.00;99.90;;;;;;5034194;28;20435;-77
2021/05/23 00:52:20;;;;;;;1.33;0.60;;;12.00;99.90;;;;;;5034017;28;20178;-77
2021/05/23 00:54:46;;;;;;;0.80;0.60;;;12.00;99.90;;;;;;5033712;28;20198;-76
2021/05/23 00:57:11;;;;;;;0.90;0.70;;;12.00;99.90;;;;;;5034014;28;20950;-78
2021/05/23 00:59:37;;;;;;;2.87;0.80;;;12.00;99.90;;;;;;5033583;28;20193;-77
2021/05/23 01:02:08;;;;;;;1.03;0.50;;;12.00;99.90;;;;;;5033613;28;20181;-77
2021/05/23 01:04:34;;;;;;;0.90;0.70;;;12.00;99.90;;;;;;5015757;28;20289;-77
2021/05/23 01:07:00;;;;;;;1.03;0.60;;;12.00;99.90;;;;;;5033745;28;20425;-78
2021/05/23 01:09:26;;;;;;;1.00;0.90;;;12.00;99.90;;;;;;5033657;28;20427;-77
2021/05/23 01:11:51;;;;;;;1.33;0.60;;;11.90;99.90;;;;;;5033912;28;20642;-77
2021/05/23 01:14:44;;;;;;;2.57;0.97;;;11.90;99.90;;;;;;5015583;28;20224;-77
2021/05/23 01:17:12;;;;;;;1.90;0.60;;;12.00;99.90;;;;;;5033743;28;20232;-77
2021/05/23 01:19:53;;;;;;;0.80;0.60;;;12.00;99.90;;;;;;5033466;28;20473;-77
2021/05/23 01:22:50;;;;;;;3.53;0.70;;;11.90;99.90;;;;;;5033389;28;20419;-77
2021/05/23 01:25:19;;;;;;;2.10;0.70;;;11.90;99.90;;;;;;5004944;28;20514;-77
2021/05/23 01:27:48;;;;;;;0.90;0.50;;;11.90;99.90;;;;;;5033592;28;20503;-78
2021/05/23 01:30:21;;;;;;;0.60;0.60;;;11.80;99.90;;;;;;5033330;28;20409;-77
2021/05/23 01:32:48;;;;;;;0.70;0.67;;;11.80;99.90;;;;;;5033357;28;20470;-76
2021/05/23 01:35:20;;;;;;;2.57;1.47;;;11.70;99.90;;;;;;5033098;28;20413;-78
2021/05/23 01:37:50;;;;;;;2.30;0.63;;;11.70;99.90;;;;;;5015606;28;20441;-77
2021/05/23 01:40:18;;;;;;;1.37;0.60;;;11.70;99.90;;;;;;5015226;28;20417;-80
2021/05/23 01:42:44;;;;;;;2.00;0.70;;;11.70;99.90;;;;;;5033073;28;20404;-75
2021/05/23 01:45:11;;;;;;;1.27;0.53;;;11.60;99.90;;;;;;5033061;28;20464;-77
2021/05/23 01:47:38;;;;;;;3.70;0.70;;;11.70;99.90;;;;;;5032889;28;20527;-77
2021/05/23 01:50:04;;;;;;;3.80;0.60;;;11.70;99.90;;;;;;5033193;28;20427;-77
2021/05/23 01:52:29;;;;;;;1.70;0.80;;;11.60;99.90;;;;;;5032827;28;20411;-77
2021/05/23 01:54:55;;;;;;;0.80;0.60;;;11.60;99.90;;;;;;5032774;28;20590;-77
2021/05/23 01:57:21;;;;;;;1.63;0.70;;;11.60;99.90;;;;;;5032720;28;20197;-77
2021/05/23 01:59:46;;;;;;;1.17;0.70;;;11.50;99.90;;;;;;5032957;28;20184;-77
2021/05/23 02:02:12;;;;;;;1.13;0.60;;;11.50;99.90;;;;;;5032792;28;20255;-77
2021/05/23 02:04:38;;;;;;;3.23;0.70;;;11.50;99.90;;;;;;5032695;28;20292;-76
2021/05/23 02:07:03;;;;;;;0.80;0.60;;;11.50;99.90;;;;;;5032684;28;20937;-77
2021/05/23 02:09:29;;;;;;;1.97;0.80;;;11.60;99.90;;;;;;5032670;28;20215;-77
2021/05/23 02:11:56;;;;;;;1.80;0.70;;;11.50;99.90;;;;;;5032720;28;20208;-77
2021/05/23 02:14:22;;;;;;;0.60;0.50;;;11.50;99.90;;;;;;5032348;28;20180;-78
2021/05/23 02:16:51;;;;;;;5.07;0.60;;;11.50;99.90;;;;;;5032200;28;20981;-77
2021/05/23 02:19:16;;;;;;;0.70;0.60;;;11.50;99.90;;;;;;5032374;28;20450;-77
2021/05/23 02:21:42;;;;;;;0.60;0.60;;;11.60;99.90;;;;;;5032324;28;20456;-78
2021/05/23 02:24:08;;;;;;;1.03;0.90;;;11.60;99.90;;;;;;5014502;28;20266;-77
2021/05/23 02:26:33;;;;;;;0.63;0.50;;;11.40;99.90;;;;;;5032101;28;20208;-77
2021/05/23 02:28:59;;;;;;;3.13;0.70;;;11.20;99.90;;;;;;5032264;28;20211;-76
2021/05/23 02:31:25;;;;;;;3.33;1.13;;;11.00;99.90;;;;;;5031975;28;20180;-77
2021/05/23 02:33:50;;;;;;;3.33;0.80;;;10.60;99.90;;;;;;5031750;28;20202;-76
2021/05/23 02:36:16;;;;;;;2.93;0.70;;;10.40;99.90;;;;;;5013816;28;20191;-77
2021/05/23 02:38:41;;;;;;;3.70;0.70;;;10.20;99.90;;;;;;5031855;28;20644;-79
2021/05/23 02:41:07;;;;;;;2.60;0.80;;;10.10;99.90;;;;;;5031884;28;20596;-77
2021/05/23 02:43:32;;;;;;;1.43;0.80;;;10.00;99.90;;;;;;5031822;28;20175;-77
2021/05/23 02:46:01;;;;;;;2.60;0.70;;;9.80;99.90;;;;;;5032200;28;20264;-78
2021/05/23 02:48:26;;;;;;;0.80;0.80;;;9.70;99.90;;;;;;5031649;28;20215;-77
2021/05/23 02:50:53;;;;;;;1.93;0.70;;;9.60;99.90;;;;;;5032308;28;20964;-77
2021/05/23 02:53:20;;;;;;;0.50;0.50;;;9.50;99.90;;;;;;5033144;28;20171;-77
2021/05/23 02:55:48;;;;;;;0.67;0.67;;;9.50;99.90;;;;;;5016058;28;20445;-77
2021/05/23 02:58:15;;;;;;;0.87;0.50;;;9.40;99.90;;;;;;5033710;28;20422;-77
2021/05/23 03:00:42;;;;;;;0.90;0.50;;;9.30;99.90;;;;;;5033866;28;20785;-80
2021/05/23 03:03:08;;;;;;;0.60;0.50;;;9.30;99.90;;;;;;5033341;28;20410;-78
2021/05/23 03:05:34;;;;;;;1.77;0.50;;;9.20;99.90;;;;;;5033142;28;20480;-77
2021/05/23 03:08:00;;;;;;;0.67;0.50;;;9.20;99.90;;;;;;5033342;28;20428;-77
2021/05/23 03:10:31;;;;;;;0.43;0.43;;;9.20;99.90;;;;;;5033341;28;20176;-77
2021/05/23 03:12:57;;;;;;;1.97;0.53;;;9.10;99.90;;;;;;5033288;28;20404;-77
2021/05/23 03:15:25;;;;;;;0.53;0.50;;;9.10;99.90;;;;;;5033151;28;20428;-77
2021/05/23 03:17:52;;;;;;;0.70;0.50;;;9.10;99.90;;;;;;5032864;28;20208;-77
2021/05/23 03:20:19;;;;;;;4.67;0.60;;;9.10;99.90;;;;;;5033072;28;20416;-78
2021/05/23 03:22:47;;;;;;;3.27;0.47;;;9.10;99.90;;;;;;5033001;28;20462;-78
2021/05/23 03:25:14;;;;;;;0.67;0.40;;;9.00;99.90;;;;;;5032894;28;20509;-78
2021/05/23 03:27:40;;;;;;;0.57;0.53;;;9.00;99.90;;;;;;5032707;28;20577;-77
2021/05/23 03:30:09;;;;;;;0.50;0.50;;;9.00;99.90;;;;;;5032989;28;20426;-77
2021/05/23 03:32:35;;;;;;;0.40;0.40;;;9.00;99.90;;;;;;5032837;28;20421;-75
2021/05/23 03:35:01;;;;;;;0.60;0.53;;;8.90;99.90;;;;;;5032899;28;20423;-79
2021/05/23 03:37:26;;;;;;;1.37;0.60;;;8.90;99.90;;;;;;5014896;28;20201;-77
2021/05/23 03:39:52;;;;;;;0.67;0.47;;;8.90;99.90;;;;;;5015316;28;20596;-77
2021/05/23 03:42:17;;;;;;;0.70;0.60;;;8.90;99.90;;;;;;5014727;28;20179;-78
2021/05/23 03:44:43;;;;;;;0.70;0.50;;;8.90;99.90;;;;;;5032567;28;20208;-78
2021/05/23 03:47:09;;;;;;;2.03;1.53;;;8.90;99.90;;;;;;5015069;28;20254;-77
2021/05/23 03:49:38;;;;;;;0.40;0.40;;;8.90;99.90;;;;;;5015569;28;20178;-77
2021/05/23 03:52:05;;;;;;;0.53;0.53;;;8.90;99.90;;;;;;5032870;28;20923;-77
2021/05/23 03:54:31;;;;;;;0.90;0.50;;;8.90;99.90;;;;;;5032307;28;20425;-78
2021/05/23 03:56:57;;;;;;;0.70;0.70;;;8.90;99.90;;;;;;5014934;28;20500;-77
2021/05/23 03:59:22;;;;;;;0.80;0.60;;;8.90;99.90;;;;;;5016451;28;20184;-79
2021/05/23 04:01:48;;;;;;;0.50;0.50;;;9.00;99.90;;;;;;5036566;28;20599;-77
2021/05/23 04:04:13;;;;;;;5.60;0.50;;;8.90;99.90;;;;;;5035921;28;20742;-77
2021/05/23 04:06:39;;;;;;;1.17;0.53;;;8.90;99.90;;;;;;5036177;28;20243;-77
2021/05/23 04:09:04;;;;;;;0.40;0.40;;;8.90;99.90;;;;;;5019081;28;20181;-77
2021/05/23 04:11:35;;;;;;;0.67;0.50;;;8.80;99.90;;;;;;5036365;28;20188;-77
2021/05/23 04:14:01;;;;;;;1.10;0.50;;;8.80;99.90;;;;;;5019244;28;20267;-77
2021/05/23 04:16:26;;;;;;;0.53;0.50;;;8.80;99.90;;;;;;5036630;28;20482;-77
2021/05/23 04:18:52;;;;;;;3.60;0.50;;;8.90;99.90;;;;;;5036485;28;20288;-77
2021/05/23 04:21:18;;;;;;;1.07;0.43;;;8.90;99.90;;;;;;5036447;28;20186;-77
2021/05/23 04:23:44;;;;;;;0.73;0.73;;;8.90;99.90;;;;;;5036903;28;20185;-77
2021/05/23 04:26:09;;;;;;;0.50;0.50;;;9.00;99.90;;;;;;5018596;28;20816;-80
2021/05/23 04:28:35;;;;;;;0.80;0.50;;;9.00;99.90;;;;;;5036275;28;20195;-77
2021/05/23 04:31:01;;;;;;;2.43;0.60;;;9.00;99.90;;;;;;5018298;28;20190;-77
2021/05/23 04:33:26;;;;;;;0.60;0.60;;;9.10;99.90;;;;;;5017934;28;20276;-77
2021/05/23 04:35:52;;;;;;;0.90;0.63;;;9.10;99.90;;;;;;5036022;28;20183;-77
2021/05/23 04:38:17;;;;;;;0.53;0.53;;;9.10;99.90;;;;;;5018352;28;20195;-78
2021/05/23 04:40:43;;;;;;;0.80;0.67;;;9.20;99.90;;;;;;5035809;28;20179;-77
2021/05/23 04:43:09;;;;;;;3.10;0.93;;;9.20;99.90;;;;;;5018098;28;20189;-80
2021/05/23 04:45:36;;;;;;;0.60;0.50;;;9.20;99.90;;;;;;5017968;28;20276;-77
2021/05/23 04:48:02;;;;;;;0.77;0.60;;;9.20;99.90;;;;;;5017850;28;20209;-77
2021/05/23 04:50:27;;;;;;;1.47;0.50;;;9.30;99.90;;;;;;5035656;28;20486;-77
2021/05/23 04:52:53;;;;;;;0.70;0.50;;;9.40;99.90;;;;;;5035726;28;20498;-77
2021/05/23 04:55:19;;;;;;;0.60;0.57;;;9.40;99.90;;;;;;5034391;28;20201;-76
2021/05/23 04:57:44;;;;;;;0.83;0.83;;;9.50;99.90;;;;;;5035432;28;20202;-77
2021/05/23 05:00:12;;;;;;;0.90;0.67;;;9.40;99.90;;;;;;5035240;28;20184;-77
2021/05/23 05:02:40;;;;;;;0.70;0.57;;;9.50;99.90;;;;;;5035269;28;20666;-76
2021/05/23 05:05:07;;;;;;;0.90;0.50;;;9.60;99.90;;;;;;5035234;28;20499;-77
2021/05/23 05:07:33;;;;;;;6.10;0.60;;;9.60;99.90;;;;;;5035096;28;20437;-77
2021/05/23 05:09:59;;;;;;;1.60;0.60;;;9.60;99.90;;;;;;5034361;28;20410;-77
2021/05/23 05:12:24;;;;;;;0.50;0.50;;;9.70;99.90;;;;;;5034706;28;20179;-80
2021/05/23 05:14:50;;;;;;;1.63;0.60;;;9.70;99.90;;;;;;5034790;28;20189;-77
2021/05/23 05:17:15;;;;;;;2.30;0.70;;;9.80;99.90;;;;;;5035086;28;20223;-75
2021/05/23 05:19:41;;;;;;;0.80;0.70;;;9.80;99.90;;;;;;5034858;28;20185;-81
2021/05/23 05:22:07;;;;;;;3.67;1.00;;;9.80;99.90;;;;;;5035136;28;20581;-77
2021/05/23 05:24:32;;;;;;;1.10;0.70;;;9.90;99.90;;;;;;5016659;28;20316;-77
2021/05/23 05:26:58;;;;;;;0.80;0.63;;;10.00;99.90;;;;;;5034318;28;20242;-77
2021/05/23 05:29:24;;;;;;;3.13;0.50;;;10.00;99.90;;;;;;5034674;28;20185;-79
2021/05/23 05:31:50;;;;;;;0.97;0.60;;;10.00;99.90;;;;;;5034462;28;20188;-78
2021/05/23 05:34:16;;;;;;;1.70;0.70;;;10.10;99.90;;;;;;5034327;28;20506;-80
2021/05/23 05:36:41;;;;;;;2.03;0.90;;;10.10;99.90;;;;;;5034085;28;20539;-76
2021/05/23 05:39:07;;;;;;;1.63;0.53;;;10.20;99.90;;;;;;5034612;28;20219;-77
2021/05/23 05:41:33;;;;;;;2.73;0.60;;;10.20;99.90;;;;;;5034417;28;20180;-78
2021/05/23 05:43:59;;;;;;;4.00;0.70;;;10.20;99.90;;;;;;5034332;28;20208;-80
2021/05/23 05:46:25;;;;;;;3.07;0.60;;;10.20;99.90;;;;;;5016465;28;20474;-80
2021/05/23 05:48:50;;;;;;;1.43;0.80;;;10.20;99.90;;;;;;5035037;28;20855;-77
2021/05/23 05:51:16;;;;;;;0.77;0.57;;;10.20;99.90;;;;;;5034310;28;20176;-77
2021/05/23 05:53:41;;;;;;;2.10;0.70;;;10.30;99.90;;;;;;5033990;28;20194;-77
2021/05/23 05:56:07;;;;;;;1.70;0.67;;;10.20;99.90;;;;;;5034037;28;20713;-80
2021/05/23 05:58:33;;;;;;;1.63;0.73;;;10.30;99.90;;;;;;5034213;28;20192;-77
2021/05/23 06:00:58;;;;;;;0.80;0.50;;;10.30;99.90;;;;;;5034032;28;20215;-76
2021/05/23 06:03:24;;;;;;;6.00;0.60;;;10.40;99.90;;;;;;5032213;28;20185;-73
2021/05/23 06:05:49;;;;;;;1.50;0.67;;;10.50;99.90;;;;;;5014605;28;20216;-73
2021/05/23 06:08:15;;;;;;;1.37;0.50;;;10.60;99.90;;;;;;5032237;28;20170;-73
2021/05/23 06:10:40;;;;;;;2.73;0.70;;;10.70;99.90;;;;;;5032401;28;20185;-74
2021/05/23 06:13:06;;;;;;;1.43;0.60;;;10.80;99.90;;;;;;5032170;28;20534;-73
2021/05/23 06:15:32;;;;;;;1.33;0.70;;;10.90;99.90;;;;;;5032245;28;20730;-74
2021/05/23 06:17:59;;;;;;;1.80;0.60;;;10.90;99.90;;;;;;5032098;28;20206;-74
2021/05/23 06:20:24;;;;;;;2.93;1.23;;;11.00;99.90;;;;;;5031956;28;20413;-73
2021/05/23 06:22:50;;;;;;;2.00;0.60;;;11.10;99.90;;;;;;5031633;28;20416;-73
2021/05/23 06:25:15;;;;;;;0.93;0.60;;;11.20;99.90;;;;;;5031825;28;20690;-73
2021/05/23 06:27:41;;;;;;;0.50;0.50;;;11.40;99.90;;;;;;5014174;28;20200;-73
2021/05/23 06:30:07;;;;;;;0.90;0.90;;;11.40;99.90;;;;;;5031957;28;20707;-73
2021/05/23 06:32:33;;;;;;;1.43;0.60;;;11.40;99.90;;;;;;5031770;28;20242;-73
2021/05/23 06:34:59;;;;;;;1.60;0.70;;;11.40;99.90;;;;;;5031650;28;20499;-74
2021/05/23 06:37:24;;;;;;;0.50;0.50;;;11.50;99.90;;;;;;5031705;28;20209;-73
2021/05/23 06:39:50;;;;;;;0.67;0.47;;;11.70;99.90;;;;;;5031761;28;20178;-73
2021/05/23 06:42:15;;;;;;;2.27;0.70;;;11.90;99.90;;;;;;5031666;28;20178;-73
2021/05/23 06:44:41;;;;;;;2.50;0.50;;;12.10;99.90;;;;;;5031273;28;20213;-73
2021/05/23 06:47:07;;;;;;;0.70;0.70;;;12.40;99.90;;;;;;5031772;28;20197;-73
2021/05/23 06:49:32;;;;;;;3.13;0.60;;;12.60;99.90;;;;;;5031720;28;20238;-74
2021/05/23 06:51:59;;;;;;;1.53;0.90;;;12.60;99.90;;;;;;5032054;28;20388;-73
2021/05/23 06:54:26;;;;;;;3.13;0.70;;;12.60;99.90;;;;;;5031160;28;20973;-72
2021/05/23 06:56:51;;;;;;;1.17;0.70;;;12.60;99.90;;;;;;5031438;28;20849;-71
2021/05/23 06:59:17;;;;;;;3.17;0.60;;;12.90;99.90;;;;;;5031382;28;20412;-71
2021/05/23 07:01:42;;;;;;;0.87;0.50;;;13.10;99.90;;;;;;5027942;28;20231;-71
2021/05/23 07:04:08;;;;;;;0.73;0.60;;;13.60;99.90;;;;;;5020001;28;20213;-73
2021/05/23 07:06:34;;;;;;;3.83;0.97;;;13.90;99.90;;;;;;5021338;28;20202;-72
2021/05/23 07:08:59;;;;;;;3.87;0.53;;;13.80;99.90;;;;;;5001866;28;20174;-72
2021/05/23 07:11:25;;;;;;;1.77;0.60;;;13.90;99.90;;;;;;5020237;28;20672;-71
2021/05/23 07:13:51;;;;;;;3.00;0.70;;;14.40;99.90;;;;;;5020645;28;20232;-71
2021/05/23 07:16:17;;;;;;;0.53;0.53;;;14.30;99.90;;;;;;5016650;28;20456;-71
2021/05/23 07:18:42;;;;;;;0.80;0.60;;;14.10;99.90;;;;;;5024155;28;20185;-71
2021/05/23 07:21:08;;;;;;;2.20;0.50;;;13.90;99.90;;;;;;5031099;28;20574;-72
2021/05/23 07:23:33;;;;;;;4.20;0.57;;;13.90;99.90;;;;;;5031187;28;20178;-71
2021/05/23 07:25:59;;;;;;;2.90;0.50;;;14.00;99.90;;;;;;5030812;28;20211;-70
2021/05/23 07:28:25;;;;;;;0.60;0.50;;;13.90;99.90;;;;;;5031022;28;20170;-71
2021/05/23 07:30:51;;;;;;;0.90;0.50;;;14.00;99.90;;;;;;5030766;28;20599;-72
2021/05/23 07:33:18;;;;;;;2.93;0.60;;;13.90;99.90;;;;;;5032109;28;20499;-71
2021/05/23 07:35:44;;;;;;;0.77;0.70;;;13.90;99.90;;;;;;5034927;28;20178;-69
2021/05/23 07:38:10;;;;;;;0.60;0.53;;;13.70;99.90;;;;;;5035024;28;20491;-73
2021/05/23 07:40:36;;;;;;;1.33;0.50;;;13.60;99.90;;;;;;5025984;28;20424;-73
2021/05/23 07:43:03;;;;;;;1.60;0.50;;;13.30;99.90;;;;;;5034839;28;20170;-73
2021/05/23 07:45:32;;;;;;;0.70;0.50;;;12.70;99.90;;;;;;5016496;28;20546;-73
2021/05/23 07:47:58;;;;;;;1.90;0.90;;;12.10;99.90;;;;;;5034832;28;20457;-73
2021/05/23 07:50:24;;;;;;;0.60;0.60;;;11.50;99.90;;;;;;5016814;28;20412;-73
2021/05/23 07:52:50;;;;;;;2.43;0.60;;;11.10;99.90;;;;;;5034758;28;20685;-73
2021/05/23 07:55:16;;;;;;;2.07;0.50;;;10.90;99.90;;;;;;5034160;28;20436;-75
2021/05/23 07:57:41;;;;;;;0.60;0.40;;;10.70;99.90;;;;;;5034603;28;20436;-74
2021/05/23 08:00:08;;;;;;;4.40;1.07;;;10.40;99.90;;;;;;5034524;28;20465;-74
2021/05/23 08:02:34;;;;;;;4.00;1.87;;;10.40;99.90;;;;;;5034102;28;20216;-74
2021/05/23 08:05:00;;;;;;;1.80;1.70;;;10.30;99.90;;;;;;5034609;28;20465;-74
2021/05/23 08:07:26;;;;;;;3.10;2.20;;;10.10;99.90;;;;;;5034461;28;20535;-73
2021/05/23 08:09:51;;;;;;;1.43;0.87;;;10.10;99.90;;;;;;5034635;28;20559;-74
2021/05/23 08:12:18;;;;;;;1.40;1.30;;;10.10;99.90;;;;;;5034247;28;20187;-75
2021/05/23 08:14:44;;;;;;;2.50;1.20;;;10.50;99.90;;;;;;5016663;28;20182;-74
2021/05/23 08:17:10;;;;;;;1.10;1.10;;;11.20;99.90;;;;;;5016650;28;20808;-73
2021/05/23 08:19:35;;;;;;;3.17;0.70;;;12.30;99.90;;;;;;5016698;28;20186;-73
2021/05/23 08:22:01;;;;;;;1.43;0.80;;;13.20;99.90;;;;;;5034652;28;20178;-74
2021/05/23 08:24:30;;;;;;;12.80;7.10;;;14.00;99.90;;;;;;5033936;28;20210;-74
2021/05/23 08:26:55;;;;;;;1.60;1.00;;;14.50;99.90;;;;;;5034411;28;20197;-74
2021/05/23 08:29:21;;;;;;;4.30;2.77;;;15.10;99.90;;;;;;5034032;28;20778;-74
2021/05/23 08:31:46;;;;;;;6.73;3.40;;;16.10;99.90;;;;;;5034189;28;20191;-75
2021/05/23 08:34:12;;;;;;;0.83;0.70;;;16.60;99.90;;;;;;5034010;28;20177;-75
2021/05/23 08:36:37;;;;;;;1.97;1.67;;;17.00;99.90;;;;;;5033833;28;20197;-75
2021/05/23 08:39:03;;;;;;;1.47;0.60;;;17.30;99.90;;;;;;5028003;28;20664;-75
2021/05/23 08:41:29;;;;;;;1.37;0.93;;;17.90;99.90;;;;;;5028885;28;20558;-75
2021/05/23 08:43:54;;;;;;;2.63;0.47;;;18.30;99.90;;;;;;5013933;28;20410;-73
2021/05/23 08:46:20;;;;;;;1.87;0.80;;;18.00;99.90;;;;;;4995636;28;20209;-74
2021/05/23 08:48:47;;;;;;;1.33;0.80;;;17.50;99.90;;;;;;5014265;28;20178;-74
2021/05/23 08:51:14;;;;;;;3.03;1.07;;;16.60;99.90;;;;;;5013916;28;20179;-74
2021/05/23 08:53:39;;;;;;;3.50;1.70;;;15.70;99.90;;;;;;5013886;28;20491;-73
2021/05/23 08:56:05;;;;;;;3.87;1.10;;;15.20;99.90;;;;;;5016219;28;20459;-73
2021/05/23 08:58:30;;;;;;;4.30;1.13;;;15.10;99.90;;;;;;5023198;28;20550;-73
2021/05/23 09:00:56;;;;;;;1.73;0.90;;;15.40;99.90;;;;;;5021524;28;20559;-73
2021/05/23 09:03:22;;;;;;;1.20;0.80;;;15.90;99.90;;;;;;5013886;28;20179;-74
2021/05/23 09:05:57;;;;;;;1.83;0.70;;;16.90;99.90;;;;;;5013676;28;20224;-73
2021/05/23 09:08:30;;;;;;;1.00;0.60;;;16.70;99.90;;;;;;5014032;28;20213;-74
2021/05/23 09:11:01;;;;;;;1.77;1.40;;;16.20;99.90;;;;;;5013717;28;20422;-74
2021/05/23 09:13:34;;;;;;;1.53;0.70;;;15.80;99.90;;;;;;5013604;28;20410;-74
2021/05/23 09:16:06;;;;;;;2.20;0.87;;;15.20;99.90;;;;;;5013637;28;20911;-73
2021/05/23 09:18:52;;;;;;;1.13;0.60;;;15.00;99.90;;;;;;4996434;28;20804;-73
2021/05/23 09:21:21;;;;;;;4.40;0.90;;;15.40;99.90;;;;;;5013247;28;20422;-74
2021/05/23 09:23:54;;;;;;;1.67;0.70;;;16.20;99.90;;;;;;5013062;28;20437;-73
2021/05/23 09:26:25;;;;;;;1.50;0.50;;;17.30;99.90;;;;;;5013133;28;20225;-74
2021/05/23 09:28:51;;;;;;;5.60;1.13;;;17.50;99.90;;;;;;5013513;28;20414;-74
2021/05/23 09:31:23;;;;;;;2.33;0.90;;;17.30;99.90;;;;;;5012241;28;20410;-73
2021/05/23 09:33:51;;;;;;;1.35;0.60;;;16.70;99.90;;;;;;5013019;28;20410;-73
2021/05/23 09:36:18;;;;;;;4.60;0.70;;;16.20;99.90;;;;;;5013007;28;20923;-73
2021/05/23 09:38:57;;;;;;;2.03;0.70;;;15.70;99.90;;;;;;4995734;28;20970;-74
2021/05/23 09:41:32;;;;;;;0.60;0.60;;;15.00;99.90;;;;;;5012900;28;20401;-74
2021/05/23 09:44:15;;;;;;;1.20;0.70;;;14.70;99.90;;;;;;5011946;28;20816;-73
2021/05/23 09:47:03;;;;;;;2.88;0.60;;;14.50;99.90;;;;;;5020028;28;20414;-73
2021/05/23 09:49:31;;;;;;;3.00;0.80;;;14.20;99.90;;;;;;5004714;28;20690;-73
2021/05/23 09:52:03;;;;;;;0.80;0.60;;;14.00;99.90;;;;;;5012431;28;20938;-73
2021/05/23 09:54:41;;;;;;;2.80;0.80;;;13.50;99.90;;;;;;5032201;28;20464;-73
2021/05/23 09:57:15;;;;;;;2.47;0.60;;;13.30;99.90;;;;;;5031649;28;20432;-75
2021/05/23 09:59:41;;;;;;;1.93;0.70;;;12.90;99.90;;;;;;5032762;28;20404;-75
2021/05/23 10:02:08;;;;;;;0.97;0.97;;;12.80;99.90;;;;;;5015149;28;20417;-74
2021/05/23 10:04:36;;;;;;;3.53;0.70;;;12.70;99.90;;;;;;5012551;28;20191;-74
2021/05/23 10:07:04;;;;;;;1.07;0.80;;;13.40;99.90;;;;;;5013163;28;20443;-74
2021/05/23 10:09:30;;;;;;;2.50;0.83;;;14.20;99.90;;;;;;5012927;28;20445;-74
2021/05/23 10:11:57;;;;;;;1.17;0.60;;;15.10;99.90;;;;;;4994960;28;20410;-74
2021/05/23 10:14:23;;;;;;;0.80;0.50;;;15.90;99.90;;;;;;5012204;28;20449;-75
2021/05/23 10:16:51;;;;;;;2.30;0.60;;;16.80;99.90;;;;;;5012451;28;20434;-74
2021/05/23 10:19:25;;;;;;;1.10;0.60;;;18.10;99.90;;;;;;5012581;28;20409;-74
2021/05/23 10:21:52;;;;;;;0.77;0.53;;;18.70;99.90;;;;;;5019459;28;20924;-75
2021/05/23 10:24:32;;;;;;;1.67;0.60;;;18.60;99.90;;;;;;5031607;28;20793;-74
2021/05/23 10:27:05;;;;;;;1.33;0.50;;;18.60;99.90;;;;;;5014391;28;20782;-74
2021/05/23 10:29:39;;;;;;;1.00;0.60;;;18.80;99.90;;;;;;5014148;28;20496;-74
2021/05/23 10:32:12;;;;;;;2.73;0.77;;;19.40;99.90;;;;;;5030579;28;20416;-74
2021/05/23 10:34:46;;;;;;;0.80;0.60;;;19.20;99.90;;;;;;5031808;28;20413;-74
2021/05/23 10:37:14;;;;;;;2.03;0.50;;;18.60;99.90;;;;;;5031773;28;20432;-74
2021/05/23 10:39:51;;;;;;;1.10;0.60;;;17.60;99.90;;;;;;5031806;28;20843;-75
2021/05/23 10:42:17;;;;;;;0.70;0.70;;;17.10;99.90;;;;;;5031644;28;20424;-74
2021/05/23 10:44:49;;;;;;;5.13;0.60;;;16.80;99.90;;;;;;5013857;28;20565;-75
2021/05/23 10:47:23;;;;;;;1.30;0.63;;;16.20;99.90;;;;;;5031740;28;20436;-74
2021/05/23 10:50:00;;;;;;;0.77;0.77;;;16.10;99.90;;;;;;5031864;28;20459;-74
2021/05/23 10:52:28;;;;;;;1.57;0.70;;;15.90;99.90;;;;;;5031433;28;20412;-74
2021/05/23 10:54:56;;;;;;;1.13;0.70;;;16.00;99.90;;;;;;5031342;28;20483;-75
2021/05/23 10:57:21;;;;;;;4.50;0.97;;;15.90;99.90;;;;;;5031371;28;20430;-74
2021/05/23 11:00:01;;;;;;;1.20;1.00;;;15.90;99.90;;;;;;5031721;28;20416;-74
2021/05/23 11:02:43;;;;;;;1.50;0.80;;;16.20;99.90;;;;;;5031310;28;20728;-74
2021/05/23 11:05:29;;;;;;;3.60;0.60;;;16.20;99.90;;;;;;5013737;28;20543;-75
2021/05/23 11:08:09;;;;;;;0.90;0.60;;;16.10;99.90;;;;;;5031057;28;20432;-74
2021/05/23 11:10:43;;;;;;;1.30;1.20;;;16.00;99.90;;;;;;5013646;28;20444;-74
2021/05/23 11:13:12;;;;;;;2.70;1.40;;;15.70;99.90;;;;;;5015681;28;20782;-75
2021/05/23 11:15:43;;;;;;;3.23;1.23;;;15.40;99.90;;;;;;5011425;28;20787;-75
2021/05/23 11:18:13;;;;;;;2.43;0.67;;;15.20;99.90;;;;;;5011530;28;20829;-74
2021/05/23 11:20:38;;;;;;;1.70;1.40;;;15.00;99.90;;;;;;5011615;28;20778;-74
2021/05/23 11:23:06;;;;;;;2.50;1.03;;;14.70;99.90;;;;;;5011509;28;20414;-74
2021/05/23 11:25:33;;;;;;;2.70;1.00;;;14.50;99.90;;;;;;5011393;28;20199;-74
2021/05/23 11:28:01;;;;;;;3.57;1.80;;;14.30;99.90;;;;;;5011486;28;20433;-74
2021/05/23 11:30:36;;;;;;;3.23;1.20;;;14.30;99.90;;;;;;5011305;28;20421;-74
2021/05/23 11:33:10;;;;;;;3.57;0.90;;;14.00;99.90;;;;;;5011409;28;20402;-75
2021/05/23 11:35:38;;;;;;;1.83;1.10;;;14.00;99.90;;;;;;5011202;28;20409;-74
2021/05/23 11:38:05;;;;;;;0.60;0.60;;;14.40;99.90;;;;;;5011402;28;20968;-74
2021/05/23 11:40:39;;;;;;;1.00;0.60;;;15.00;99.90;;;;;;4993531;28;20424;-75
2021/05/23 11:43:14;;;;;;;1.00;0.90;;;15.30;99.90;;;;;;5011273;28;20440;-75
2021/05/23 11:46:03;;;;;;;1.90;0.70;;;15.80;99.90;;;;;;5011225;28;20470;-75
2021/05/23 11:48:40;;;;;;;1.40;0.83;;;16.00;99.90;;;;;;5010668;28;20460;-74
2021/05/23 11:51:11;;;;;;;2.70;1.17;;;16.30;99.90;;;;;;5011732;28;20421;-74
2021/05/23 11:53:45;;;;;;;2.53;1.87;;;16.60;99.90;;;;;;5022151;28;20482;-75
2021/05/23 11:56:15;;;;;;;1.67;0.80;;;17.20;99.90;;;;;;5017087;28;21173;-74
2021/05/23 11:58:57;;;;;;;2.00;0.80;;;17.70;99.90;;;;;;5002939;28;20424;-75
2021/05/23 12:01:31;;;;;;;4.00;1.50;;;17.80;99.90;;;;;;5019218;28;20428;-74
2021/05/23 12:03:56;;;;;;;0.50;0.40;;;17.80;99.90;;;;;;5018400;28;20452;-74
2021/05/23 12:06:22;;;;;;;3.60;0.70;;;17.70;99.90;;;;;;5019812;28;20504;-74
2021/05/23 12:08:48;;;;;;;1.27;0.60;;;17.90;99.90;;;;;;5020091;28;20177;-74
2021/05/23 12:11:13;;;;;;;2.27;1.00;;;18.10;99.90;;;;;;5018552;28;20410;-74
2021/05/23 12:13:46;;;;;;;2.57;0.60;;;18.10;99.90;;;;;;5020146;28;20517;-74
2021/05/23 12:16:14;;;;;;;2.40;0.80;;;18.10;99.90;;;;;;5020310;28;20261;-74
2021/05/23 12:18:41;;;;;;;1.43;0.90;;;17.90;99.90;;;;;;5018785;28;20425;-72
2021/05/23 12:21:09;;;;;;;1.33;0.70;;;17.70;99.90;;;;;;5023533;28;20507;-73
2021/05/23 12:23:36;;;;;;;0.80;0.50;;;17.80;99.90;;;;;;5021886;28;20487;-73
2021/05/23 12:26:07;;;;;;;0.60;0.50;;;17.90;99.90;;;;;;5021401;28;20456;-72
2021/05/23 12:28:43;;;;;;;0.73;0.60;;;18.30;99.90;;;;;;5002932;28;20424;-72
2021/05/23 12:31:11;;;;;;;1.30;1.00;;;18.40;99.90;;;;;;5007863;28;20427;-73
2021/05/23 12:33:37;;;;;;;1.90;0.90;;;18.30;99.90;;;;;;5033974;28;20416;-74
2021/05/23 12:36:12;;;;;;;2.00;0.70;;;18.30;99.90;;;;;;5014792;28;20971;-74
2021/05/23 12:38:52;;;;;;;0.93;0.50;;;18.50;99.90;;;;;;5033970;28;20427;-74
2021/05/23 12:41:17;;;;;;;10.63;1.57;;;18.30;99.90;;;;;;5034005;28;20416;-74
2021/05/23 12:43:43;;;;;;;2.20;0.80;;;18.00;99.90;;;;;;5034591;28;20428;-74
2021/05/23 12:46:12;;;;;;;3.43;0.80;;;17.60;99.90;;;;;;5033712;28;20580;-74
2021/05/23 12:48:45;;;;;;;1.10;0.50;;;17.30;99.90;;;;;;5014801;28;20174;-74
2021/05/23 12:51:13;;;;;;;2.93;0.90;;;16.90;99.90;;;;;;5032237;28;20757;-74